sensor_id;sensor_type;location;lat;lon;timestamp;P1;durP1;ratioP1;P2;durP2;ratioP2
18653;SDS011;9456;47.824;16.228;2023-03-01T00:01:10;35.77;;;24.43;;
18653;SDS011;9456;47.824;16.228;2023-03-01T00:03:39;41.83;;;27.10;;
18653;SDS011;9456;47.824;16.228;2023-03-01T00:06:08;41.50;;;26.53;;
18653;SDS011;9456;47.824;16.228;2023-03-01T00:08:37;39.33;;;26.27;;
18653;SDS011;9456;47.824;16.228;2023-03-01T00:11:07;42.93;;;25.27;;
18653;SDS011;9456;47.824;16.228;2023-03-01T00:13:35;42.03;;;24.87;;
18653;SDS011;9456;47.824;16.228;2023-03-01T00:16:06;41.40;;;25.80;;
18653;SDS011;9456;47.824;16.228;2023-03-01T00:18:33;40.37;;;25.43;;
18653;SDS011;9456;47.824;16.228;2023-03-01T00:21:03;37.93;;;24.93;;
18653;SDS011;9456;47.824;16.228;2023-03-01T00:23:33;39.23;;;24.97;;
18653;SDS011;9456;47.824;16.228;2023-03-01T00:26:02;39.17;;;23.67;;
18653;SDS011;9456;47.824;16.228;2023-03-01T00:28:32;42.83;;;26.33;;
18653;SDS011;9456;47.824;16.228;2023-03-01T00:31:03;44.60;;;26.87;;
18653;SDS011;9456;47.824;16.228;2023-03-01T00:33:32;39.20;;;25.07;;
18653;SDS011;9456;47.824;16.228;2023-03-01T00:36:03;39.00;;;25.23;;
18653;SDS011;9456;47.824;16.228;2023-03-01T00:38:35;43.70;;;26.53;;
18653;SDS011;9456;47.824;16.228;2023-03-01T00:41:05;38.93;;;25.63;;
18653;SDS011;9456;47.824;16.228;2023-03-01T00:46:12;38.13;;;24.10;;
18653;SDS011;9456;47.824;16.228;2023-03-01T00:48:41;37.50;;;25.27;;
18653;SDS011;9456;47.824;16.228;2023-03-01T00:51:11;42.03;;;24.83;;
18653;SDS011;9456;47.824;16.228;2023-03-01T00:53:39;39.37;;;25.30;;
18653;SDS011;9456;47.824;16.228;2023-03-01T00:56:09;41.43;;;25.23;;
18653;SDS011;9456;47.824;16.228;2023-03-01T00:58:38;37.80;;;24.43;;
18653;SDS011;9456;47.824;16.228;2023-03-01T01:01:10;37.93;;;24.60;;
18653;SDS011;9456;47.824;16.228;2023-03-01T01:03:38;38.20;;;24.73;;
18653;SDS011;9456;47.824;16.228;2023-03-01T01:06:08;36.37;;;24.23;;
18653;SDS011;9456;47.824;16.228;2023-03-01T01:08:41;41.60;;;26.03;;
18653;SDS011;9456;47.824;16.228;2023-03-01T01:11:10;40.13;;;24.20;;
18653;SDS011;9456;47.824;16.228;2023-03-01T01:13:39;36.77;;;24.43;;
18653;SDS011;9456;47.824;16.228;2023-03-01T01:16:08;42.67;;;25.27;;
18653;SDS011;9456;47.824;16.228;2023-03-01T01:18:37;34.83;;;24.53;;
18653;SDS011;9456;47.824;16.228;2023-03-01T01:21:07;37.63;;;24.60;;
18653;SDS011;9456;47.824;16.228;2023-03-01T01:23:36;34.70;;;23.40;;
18653;SDS011;9456;47.824;16.228;2023-03-01T01:26:06;39.27;;;25.40;;
18653;SDS011;9456;47.824;16.228;2023-03-01T01:28:35;39.03;;;24.00;;
18653;SDS011;9456;47.824;16.228;2023-03-01T01:31:04;37.97;;;23.53;;
18653;SDS011;9456;47.824;16.228;2023-03-01T01:33:33;35.37;;;23.83;;
18653;SDS011;9456;47.824;16.228;2023-03-01T01:36:02;35.37;;;23.10;;
18653;SDS011;9456;47.824;16.228;2023-03-01T01:38:32;38.30;;;24.80;;
18653;SDS011;9456;47.824;16.228;2023-03-01T01:41:01;41.30;;;24.83;;
18653;SDS011;9456;47.824;16.228;2023-03-01T01:43:31;32.70;;;23.07;;
18653;SDS011;9456;47.824;16.228;2023-03-01T01:46:06;35.47;;;23.60;;
18653;SDS011;9456;47.824;16.228;2023-03-01T01:48:37;33.17;;;22.53;;
18653;SDS011;9456;47.824;16.228;2023-03-01T01:51:09;36.93;;;23.33;;
18653;SDS011;9456;47.824;16.228;2023-03-01T01:53:38;36.33;;;23.77;;
18653;SDS011;9456;47.824;16.228;2023-03-01T01:56:07;35.67;;;22.40;;
18653;SDS011;9456;47.824;16.228;2023-03-01T01:58:36;33.87;;;23.80;;
18653;SDS011;9456;47.824;16.228;2023-03-01T02:01:05;34.37;;;22.40;;
18653;SDS011;9456;47.824;16.228;2023-03-01T02:03:34;39.80;;;24.47;;
18653;SDS011;9456;47.824;16.228;2023-03-01T02:06:06;36.40;;;22.93;;
18653;SDS011;9456;47.824;16.228;2023-03-01T02:08:35;35.80;;;24.63;;
18653;SDS011;9456;47.824;16.228;2023-03-01T02:11:03;34.97;;;23.17;;
18653;SDS011;9456;47.824;16.228;2023-03-01T02:13:32;32.67;;;22.17;;
18653;SDS011;9456;47.824;16.228;2023-03-01T02:16:03;36.63;;;22.20;;
18653;SDS011;9456;47.824;16.228;2023-03-01T02:18:32;34.10;;;22.73;;
18653;SDS011;9456;47.824;16.228;2023-03-01T02:21:08;34.30;;;23.07;;
18653;SDS011;9456;47.824;16.228;2023-03-01T02:23:37;34.97;;;23.23;;
18653;SDS011;9456;47.824;16.228;2023-03-01T02:26:07;37.00;;;22.87;;
18653;SDS011;9456;47.824;16.228;2023-03-01T02:28:36;38.33;;;22.67;;
18653;SDS011;9456;47.824;16.228;2023-03-01T02:31:05;36.67;;;22.20;;
18653;SDS011;9456;47.824;16.228;2023-03-01T02:33:52;35.40;;;23.03;;
18653;SDS011;9456;47.824;16.228;2023-03-01T02:36:21;37.80;;;24.40;;
18653;SDS011;9456;47.824;16.228;2023-03-01T02:38:51;31.17;;;21.40;;
18653;SDS011;9456;47.824;16.228;2023-03-01T02:41:19;32.73;;;21.97;;
18653;SDS011;9456;47.824;16.228;2023-03-01T02:43:48;31.97;;;22.63;;
18653;SDS011;9456;47.824;16.228;2023-03-01T02:46:19;30.00;;;21.20;;
18653;SDS011;9456;47.824;16.228;2023-03-01T02:48:48;30.43;;;21.60;;
18653;SDS011;9456;47.824;16.228;2023-03-01T02:51:24;33.23;;;23.47;;
18653;SDS011;9456;47.824;16.228;2023-03-01T02:54:13;34.70;;;21.60;;
18653;SDS011;9456;47.824;16.228;2023-03-01T02:56:44;33.37;;;23.70;;
18653;SDS011;9456;47.824;16.228;2023-03-01T02:59:14;30.43;;;22.53;;
18653;SDS011;9456;47.824;16.228;2023-03-01T03:01:42;32.00;;;23.20;;
18653;SDS011;9456;47.824;16.228;2023-03-01T03:04:13;33.53;;;21.93;;
18653;SDS011;9456;47.824;16.228;2023-03-01T03:06:43;33.43;;;23.33;;
18653;SDS011;9456;47.824;16.228;2023-03-01T03:09:12;33.03;;;23.40;;
18653;SDS011;9456;47.824;16.228;2023-03-01T03:11:41;34.90;;;23.97;;
18653;SDS011;9456;47.824;16.228;2023-03-01T03:14:12;32.30;;;21.83;;
18653;SDS011;9456;47.824;16.228;2023-03-01T03:16:41;35.43;;;23.03;;
18653;SDS011;9456;47.824;16.228;2023-03-01T03:19:09;31.70;;;22.50;;
18653;SDS011;9456;47.824;16.228;2023-03-01T03:21:38;30.63;;;22.90;;
18653;SDS011;9456;47.824;16.228;2023-03-01T03:24:07;36.13;;;23.03;;
18653;SDS011;9456;47.824;16.228;2023-03-01T03:26:36;36.07;;;22.10;;
18653;SDS011;9456;47.824;16.228;2023-03-01T03:29:05;35.63;;;22.87;;
18653;SDS011;9456;47.824;16.228;2023-03-01T03:31:34;35.07;;;22.67;;
18653;SDS011;9456;47.824;16.228;2023-03-01T03:34:03;36.37;;;23.13;;
18653;SDS011;9456;47.824;16.228;2023-03-01T03:36:32;33.27;;;21.90;;
18653;SDS011;9456;47.824;16.228;2023-03-01T03:39:01;34.07;;;23.60;;
18653;SDS011;9456;47.824;16.228;2023-03-01T03:41:31;34.27;;;24.03;;
18653;SDS011;9456;47.824;16.228;2023-03-01T03:43:59;33.73;;;22.47;;
18653;SDS011;9456;47.824;16.228;2023-03-01T03:46:28;34.27;;;22.67;;
18653;SDS011;9456;47.824;16.228;2023-03-01T03:51:38;35.60;;;22.37;;
18653;SDS011;9456;47.824;16.228;2023-03-01T03:54:07;34.33;;;22.30;;
18653;SDS011;9456;47.824;16.228;2023-03-01T03:56:36;34.50;;;22.70;;
18653;SDS011;9456;47.824;16.228;2023-03-01T03:59:05;31.80;;;21.87;;
18653;SDS011;9456;47.824;16.228;2023-03-01T04:01:34;36.07;;;23.37;;
18653;SDS011;9456;47.824;16.228;2023-03-01T04:04:03;36.20;;;24.27;;
18653;SDS011;9456;47.824;16.228;2023-03-01T04:06:32;36.43;;;24.07;;
18653;SDS011;9456;47.824;16.228;2023-03-01T04:09:01;32.07;;;22.10;;
18653;SDS011;9456;47.824;16.228;2023-03-01T04:11:30;38.33;;;22.90;;
18653;SDS011;9456;47.824;16.228;2023-03-01T04:13:59;34.23;;;22.83;;
18653;SDS011;9456;47.824;16.228;2023-03-01T04:16:28;33.70;;;21.97;;
18653;SDS011;9456;47.824;16.228;2023-03-01T04:18:58;34.80;;;23.10;;
18653;SDS011;9456;47.824;16.228;2023-03-01T04:21:27;34.10;;;21.77;;
18653;SDS011;9456;47.824;16.228;2023-03-01T04:23:56;34.17;;;22.37;;
18653;SDS011;9456;47.824;16.228;2023-03-01T04:26:25;34.03;;;20.83;;
18653;SDS011;9456;47.824;16.228;2023-03-01T04:28:54;32.93;;;22.70;;
18653;SDS011;9456;47.824;16.228;2023-03-01T04:31:23;31.50;;;21.40;;
18653;SDS011;9456;47.824;16.228;2023-03-01T04:33:53;33.10;;;21.60;;
18653;SDS011;9456;47.824;16.228;2023-03-01T04:36:23;32.10;;;21.93;;
18653;SDS011;9456;47.824;16.228;2023-03-01T04:38:51;34.50;;;22.70;;
18653;SDS011;9456;47.824;16.228;2023-03-01T04:41:21;33.90;;;22.97;;
18653;SDS011;9456;47.824;16.228;2023-03-01T04:43:49;35.50;;;22.60;;
18653;SDS011;9456;47.824;16.228;2023-03-01T04:46:19;35.27;;;22.60;;
18653;SDS011;9456;47.824;16.228;2023-03-01T04:48:47;35.90;;;23.73;;
18653;SDS011;9456;47.824;16.228;2023-03-01T04:51:16;34.63;;;22.10;;
18653;SDS011;9456;47.824;16.228;2023-03-01T04:53:45;32.37;;;22.77;;
18653;SDS011;9456;47.824;16.228;2023-03-01T04:56:14;32.53;;;21.20;;
18653;SDS011;9456;47.824;16.228;2023-03-01T04:58:43;35.83;;;22.97;;
18653;SDS011;9456;47.824;16.228;2023-03-01T05:01:12;40.70;;;23.23;;
18653;SDS011;9456;47.824;16.228;2023-03-01T05:03:42;36.90;;;23.63;;
18653;SDS011;9456;47.824;16.228;2023-03-01T05:06:11;36.73;;;23.80;;
18653;SDS011;9456;47.824;16.228;2023-03-01T05:08:41;33.83;;;23.50;;
18653;SDS011;9456;47.824;16.228;2023-03-01T05:11:10;32.27;;;22.17;;
18653;SDS011;9456;47.824;16.228;2023-03-01T05:13:39;32.93;;;21.63;;
18653;SDS011;9456;47.824;16.228;2023-03-01T05:16:08;29.37;;;21.47;;
18653;SDS011;9456;47.824;16.228;2023-03-01T05:18:37;44.33;;;28.20;;
18653;SDS011;9456;47.824;16.228;2023-03-01T05:21:06;30.60;;;22.90;;
18653;SDS011;9456;47.824;16.228;2023-03-01T05:23:35;34.50;;;21.30;;
18653;SDS011;9456;47.824;16.228;2023-03-01T05:26:05;33.33;;;22.93;;
18653;SDS011;9456;47.824;16.228;2023-03-01T05:28:34;47.87;;;27.00;;
18653;SDS011;9456;47.824;16.228;2023-03-01T05:31:03;57.67;;;34.43;;
18653;SDS011;9456;47.824;16.228;2023-03-01T05:33:33;31.50;;;21.73;;
18653;SDS011;9456;47.824;16.228;2023-03-01T05:36:02;34.93;;;23.40;;
18653;SDS011;9456;47.824;16.228;2023-03-01T05:38:31;34.47;;;22.83;;
18653;SDS011;9456;47.824;16.228;2023-03-01T05:41:00;29.03;;;21.60;;
18653;SDS011;9456;47.824;16.228;2023-03-01T05:43:31;34.63;;;22.07;;
18653;SDS011;9456;47.824;16.228;2023-03-01T05:46:00;32.27;;;21.33;;
18653;SDS011;9456;47.824;16.228;2023-03-01T05:48:29;35.87;;;23.00;;
18653;SDS011;9456;47.824;16.228;2023-03-01T05:50:59;31.17;;;21.90;;
18653;SDS011;9456;47.824;16.228;2023-03-01T05:53:27;32.13;;;22.23;;
18653;SDS011;9456;47.824;16.228;2023-03-01T05:55:56;30.00;;;21.53;;
18653;SDS011;9456;47.824;16.228;2023-03-01T05:58:25;34.33;;;22.37;;
18653;SDS011;9456;47.824;16.228;2023-03-01T06:00:54;43.17;;;22.90;;
18653;SDS011;9456;47.824;16.228;2023-03-01T06:03:23;34.27;;;21.20;;
18653;SDS011;9456;47.824;16.228;2023-03-01T06:05:56;28.90;;;20.27;;
18653;SDS011;9456;47.824;16.228;2023-03-01T06:08:25;35.70;;;21.53;;
18653;SDS011;9456;47.824;16.228;2023-03-01T06:10:54;30.70;;;22.23;;
18653;SDS011;9456;47.824;16.228;2023-03-01T06:13:23;30.83;;;21.60;;
18653;SDS011;9456;47.824;16.228;2023-03-01T06:15:52;36.00;;;24.20;;
18653;SDS011;9456;47.824;16.228;2023-03-01T06:18:21;29.80;;;19.87;;
18653;SDS011;9456;47.824;16.228;2023-03-01T06:20:53;34.00;;;22.60;;
18653;SDS011;9456;47.824;16.228;2023-03-01T06:23:22;34.23;;;21.73;;
18653;SDS011;9456;47.824;16.228;2023-03-01T06:25:51;28.77;;;20.87;;
18653;SDS011;9456;47.824;16.228;2023-03-01T06:28:20;33.30;;;22.00;;
18653;SDS011;9456;47.824;16.228;2023-03-01T06:30:50;32.70;;;22.37;;
18653;SDS011;9456;47.824;16.228;2023-03-01T06:33:19;32.90;;;23.57;;
18653;SDS011;9456;47.824;16.228;2023-03-01T06:35:48;36.40;;;24.00;;
18653;SDS011;9456;47.824;16.228;2023-03-01T06:38:18;32.77;;;23.13;;
18653;SDS011;9456;47.824;16.228;2023-03-01T06:40:52;31.33;;;22.00;;
18653;SDS011;9456;47.824;16.228;2023-03-01T06:43:21;29.43;;;21.47;;
18653;SDS011;9456;47.824;16.228;2023-03-01T06:45:50;37.63;;;24.93;;
18653;SDS011;9456;47.824;16.228;2023-03-01T06:48:19;34.23;;;23.23;;
18653;SDS011;9456;47.824;16.228;2023-03-01T06:53:31;41.37;;;24.47;;
18653;SDS011;9456;47.824;16.228;2023-03-01T06:56:00;39.60;;;25.77;;
18653;SDS011;9456;47.824;16.228;2023-03-01T06:58:29;39.80;;;25.93;;
18653;SDS011;9456;47.824;16.228;2023-03-01T07:00:59;36.63;;;24.47;;
18653;SDS011;9456;47.824;16.228;2023-03-01T07:03:27;41.80;;;26.37;;
18653;SDS011;9456;47.824;16.228;2023-03-01T07:05:56;44.33;;;27.77;;
18653;SDS011;9456;47.824;16.228;2023-03-01T07:08:25;38.27;;;25.60;;
18653;SDS011;9456;47.824;16.228;2023-03-01T07:10:57;44.60;;;26.60;;
18653;SDS011;9456;47.824;16.228;2023-03-01T07:13:26;32.73;;;24.30;;
18653;SDS011;9456;47.824;16.228;2023-03-01T07:15:55;46.80;;;28.03;;
18653;SDS011;9456;47.824;16.228;2023-03-01T07:18:24;42.67;;;27.30;;
18653;SDS011;9456;47.824;16.228;2023-03-01T07:20:53;47.10;;;28.23;;
18653;SDS011;9456;47.824;16.228;2023-03-01T07:23:22;45.47;;;30.43;;
18653;SDS011;9456;47.824;16.228;2023-03-01T07:25:52;40.57;;;27.83;;
18653;SDS011;9456;47.824;16.228;2023-03-01T07:28:21;42.50;;;28.77;;
18653;SDS011;9456;47.824;16.228;2023-03-01T07:30:50;37.03;;;26.83;;
18653;SDS011;9456;47.824;16.228;2023-03-01T07:33:20;44.80;;;27.57;;
18653;SDS011;9456;47.824;16.228;2023-03-01T07:35:48;45.60;;;26.57;;
18653;SDS011;9456;47.824;16.228;2023-03-01T07:38:24;45.03;;;26.53;;
18653;SDS011;9456;47.824;16.228;2023-03-01T07:40:53;38.63;;;26.10;;
18653;SDS011;9456;47.824;16.228;2023-03-01T07:43:22;43.07;;;26.30;;
18653;SDS011;9456;47.824;16.228;2023-03-01T07:45:51;39.67;;;25.53;;
18653;SDS011;9456;47.824;16.228;2023-03-01T07:48:20;45.43;;;26.03;;
18653;SDS011;9456;47.824;16.228;2023-03-01T07:50:49;43.33;;;26.87;;
18653;SDS011;9456;47.824;16.228;2023-03-01T07:53:22;44.50;;;27.30;;
18653;SDS011;9456;47.824;16.228;2023-03-01T07:55:51;37.27;;;23.40;;
18653;SDS011;9456;47.824;16.228;2023-03-01T07:58:28;38.53;;;25.57;;
18653;SDS011;9456;47.824;16.228;2023-03-01T08:00:57;35.60;;;25.47;;
18653;SDS011;9456;47.824;16.228;2023-03-01T08:03:29;41.17;;;25.03;;
18653;SDS011;9456;47.824;16.228;2023-03-01T08:06:00;44.17;;;25.17;;
18653;SDS011;9456;47.824;16.228;2023-03-01T08:08:29;45.13;;;24.83;;
18653;SDS011;9456;47.824;16.228;2023-03-01T08:11:00;38.40;;;24.23;;
18653;SDS011;9456;47.824;16.228;2023-03-01T08:13:29;39.13;;;22.70;;
18653;SDS011;9456;47.824;16.228;2023-03-01T08:16:02;38.40;;;22.73;;
18653;SDS011;9456;47.824;16.228;2023-03-01T08:18:31;36.53;;;22.03;;
18653;SDS011;9456;47.824;16.228;2023-03-01T08:21:02;36.23;;;23.40;;
18653;SDS011;9456;47.824;16.228;2023-03-01T08:23:31;28.63;;;20.90;;
18653;SDS011;9456;47.824;16.228;2023-03-01T08:26:04;29.00;;;21.37;;
18653;SDS011;9456;47.824;16.228;2023-03-01T08:28:34;36.13;;;22.43;;
18653;SDS011;9456;47.824;16.228;2023-03-01T08:31:04;27.23;;;20.10;;
18653;SDS011;9456;47.824;16.228;2023-03-01T08:33:52;30.53;;;20.67;;
18653;SDS011;9456;47.824;16.228;2023-03-01T08:36:22;34.77;;;21.67;;
18653;SDS011;9456;47.824;16.228;2023-03-01T08:38:51;33.17;;;21.57;;
18653;SDS011;9456;47.824;16.228;2023-03-01T08:41:20;31.80;;;22.77;;
18653;SDS011;9456;47.824;16.228;2023-03-01T08:43:49;31.43;;;21.30;;
18653;SDS011;9456;47.824;16.228;2023-03-01T08:46:18;32.67;;;22.17;;
18653;SDS011;9456;47.824;16.228;2023-03-01T08:48:48;30.77;;;20.40;;
18653;SDS011;9456;47.824;16.228;2023-03-01T08:51:19;29.90;;;21.07;;
18653;SDS011;9456;47.824;16.228;2023-03-01T08:56:28;29.10;;;20.87;;
18653;SDS011;9456;47.824;16.228;2023-03-01T08:58:58;28.90;;;19.93;;
18653;SDS011;9456;47.824;16.228;2023-03-01T09:01:27;29.10;;;21.47;;
18653;SDS011;9456;47.824;16.228;2023-03-01T09:03:56;33.63;;;22.80;;
18653;SDS011;9456;47.824;16.228;2023-03-01T09:06:25;29.60;;;21.80;;
18653;SDS011;9456;47.824;16.228;2023-03-01T09:08:54;32.93;;;21.90;;
18653;SDS011;9456;47.824;16.228;2023-03-01T09:11:23;32.27;;;22.87;;
18653;SDS011;9456;47.824;16.228;2023-03-01T09:13:52;34.67;;;22.83;;
18653;SDS011;9456;47.824;16.228;2023-03-01T09:16:21;34.63;;;22.23;;
18653;SDS011;9456;47.824;16.228;2023-03-01T09:18:50;29.57;;;21.87;;
18653;SDS011;9456;47.824;16.228;2023-03-01T09:21:20;31.50;;;21.67;;
18653;SDS011;9456;47.824;16.228;2023-03-01T09:23:48;30.10;;;19.93;;
18653;SDS011;9456;47.824;16.228;2023-03-01T09:26:18;33.50;;;20.57;;
18653;SDS011;9456;47.824;16.228;2023-03-01T09:28:52;27.70;;;20.23;;
18653;SDS011;9456;47.824;16.228;2023-03-01T09:31:20;25.50;;;19.70;;
18653;SDS011;9456;47.824;16.228;2023-03-01T09:33:49;24.80;;;19.07;;
18653;SDS011;9456;47.824;16.228;2023-03-01T09:36:20;27.17;;;18.80;;
18653;SDS011;9456;47.824;16.228;2023-03-01T09:38:48;27.60;;;20.20;;
18653;SDS011;9456;47.824;16.228;2023-03-01T09:41:21;26.67;;;18.83;;
18653;SDS011;9456;47.824;16.228;2023-03-01T09:44:10;27.53;;;18.63;;
18653;SDS011;9456;47.824;16.228;2023-03-01T09:46:40;24.13;;;17.47;;
18653;SDS011;9456;47.824;16.228;2023-03-01T09:49:10;23.87;;;18.73;;
18653;SDS011;9456;47.824;16.228;2023-03-01T09:51:39;19.27;;;15.90;;
18653;SDS011;9456;47.824;16.228;2023-03-01T09:54:09;19.23;;;15.70;;
18653;SDS011;9456;47.824;16.228;2023-03-01T09:56:40;21.20;;;15.70;;
18653;SDS011;9456;47.824;16.228;2023-03-01T09:59:11;17.93;;;14.40;;
18653;SDS011;9456;47.824;16.228;2023-03-01T10:01:43;17.40;;;14.73;;
18653;SDS011;9456;47.824;16.228;2023-03-01T10:04:35;20.57;;;16.47;;
18653;SDS011;9456;47.824;16.228;2023-03-01T10:07:13;21.37;;;15.77;;
18653;SDS011;9456;47.824;16.228;2023-03-01T10:09:43;21.27;;;16.43;;
18653;SDS011;9456;47.824;16.228;2023-03-01T10:12:12;20.80;;;16.67;;
18653;SDS011;9456;47.824;16.228;2023-03-01T10:14:43;20.53;;;16.57;;
18653;SDS011;9456;47.824;16.228;2023-03-01T10:17:13;19.50;;;15.63;;
18653;SDS011;9456;47.824;16.228;2023-03-01T10:19:43;26.23;;;16.30;;
18653;SDS011;9456;47.824;16.228;2023-03-01T10:22:13;22.33;;;16.93;;
18653;SDS011;9456;47.824;16.228;2023-03-01T10:24:41;23.53;;;16.00;;
18653;SDS011;9456;47.824;16.228;2023-03-01T10:27:11;24.30;;;16.10;;
18653;SDS011;9456;47.824;16.228;2023-03-01T10:29:42;22.00;;;16.43;;
18653;SDS011;9456;47.824;16.228;2023-03-01T10:32:09;20.00;;;15.97;;
18653;SDS011;9456;47.824;16.228;2023-03-01T10:34:38;22.93;;;16.90;;
18653;SDS011;9456;47.824;16.228;2023-03-01T10:37:11;21.90;;;15.67;;
18653;SDS011;9456;47.824;16.228;2023-03-01T10:39:55;21.33;;;15.63;;
18653;SDS011;9456;47.824;16.228;2023-03-01T10:42:26;25.63;;;15.83;;
18653;SDS011;9456;47.824;16.228;2023-03-01T10:44:55;18.93;;;15.60;;
18653;SDS011;9456;47.824;16.228;2023-03-01T10:47:24;20.37;;;15.03;;
18653;SDS011;9456;47.824;16.228;2023-03-01T10:52:56;20.63;;;15.73;;
18653;SDS011;9456;47.824;16.228;2023-03-01T10:55:29;22.10;;;15.57;;
18653;SDS011;9456;47.824;16.228;2023-03-01T10:58:08;20.70;;;14.93;;
18653;SDS011;9456;47.824;16.228;2023-03-01T11:00:46;25.87;;;15.27;;
18653;SDS011;9456;47.824;16.228;2023-03-01T11:03:16;20.20;;;15.10;;
18653;SDS011;9456;47.824;16.228;2023-03-01T11:05:53;24.60;;;15.80;;
18653;SDS011;9456;47.824;16.228;2023-03-01T11:08:32;21.50;;;15.63;;
18653;SDS011;9456;47.824;16.228;2023-03-01T11:11:05;23.63;;;15.73;;
18653;SDS011;9456;47.824;16.228;2023-03-01T11:13:34;26.93;;;16.73;;
18653;SDS011;9456;47.824;16.228;2023-03-01T11:16:03;26.30;;;16.27;;
18653;SDS011;9456;47.824;16.228;2023-03-01T11:18:32;22.47;;;15.60;;
18653;SDS011;9456;47.824;16.228;2023-03-01T11:21:01;22.00;;;16.57;;
18653;SDS011;9456;47.824;16.228;2023-03-01T11:23:30;21.77;;;16.77;;
18653;SDS011;9456;47.824;16.228;2023-03-01T11:26:00;22.87;;;15.93;;
18653;SDS011;9456;47.824;16.228;2023-03-01T11:28:29;27.00;;;17.43;;
18653;SDS011;9456;47.824;16.228;2023-03-01T11:30:58;25.63;;;16.63;;
18653;SDS011;9456;47.824;16.228;2023-03-01T11:33:30;24.40;;;16.67;;
18653;SDS011;9456;47.824;16.228;2023-03-01T11:36:01;22.33;;;17.23;;
18653;SDS011;9456;47.824;16.228;2023-03-01T11:38:30;25.73;;;18.07;;
18653;SDS011;9456;47.824;16.228;2023-03-01T11:40:59;23.13;;;17.53;;
18653;SDS011;9456;47.824;16.228;2023-03-01T11:43:32;24.47;;;17.23;;
18653;SDS011;9456;47.824;16.228;2023-03-01T11:46:16;23.13;;;16.00;;
18653;SDS011;9456;47.824;16.228;2023-03-01T11:49:08;26.80;;;18.37;;
18653;SDS011;9456;47.824;16.228;2023-03-01T11:51:44;23.20;;;17.37;;
18653;SDS011;9456;47.824;16.228;2023-03-01T11:54:16;22.07;;;16.47;;
18653;SDS011;9456;47.824;16.228;2023-03-01T11:56:55;22.57;;;17.50;;
18653;SDS011;9456;47.824;16.228;2023-03-01T12:05:42;22.77;;;15.50;;
18653;SDS011;9456;47.824;16.228;2023-03-01T12:08:17;23.20;;;16.73;;
18653;SDS011;9456;47.824;16.228;2023-03-01T12:10:48;21.87;;;17.10;;
18653;SDS011;9456;47.824;16.228;2023-03-01T12:13:26;22.63;;;16.03;;
18653;SDS011;9456;47.824;16.228;2023-03-01T12:16:08;26.70;;;18.07;;
18653;SDS011;9456;47.824;16.228;2023-03-01T12:21:41;23.93;;;16.97;;
18653;SDS011;9456;47.824;16.228;2023-03-01T12:24:14;24.60;;;18.63;;
18653;SDS011;9456;47.824;16.228;2023-03-01T12:27:09;23.60;;;18.73;;
18653;SDS011;9456;47.824;16.228;2023-03-01T12:29:44;27.20;;;19.83;;
18653;SDS011;9456;47.824;16.228;2023-03-01T12:32:17;26.20;;;18.73;;
18653;SDS011;9456;47.824;16.228;2023-03-01T12:37:45;25.67;;;19.90;;
18653;SDS011;9456;47.824;16.228;2023-03-01T12:40:19;25.00;;;18.83;;
18653;SDS011;9456;47.824;16.228;2023-03-01T12:42:54;23.87;;;19.83;;
18653;SDS011;9456;47.824;16.228;2023-03-01T12:45:29;24.50;;;19.47;;
18653;SDS011;9456;47.824;16.228;2023-03-01T12:48:31;25.07;;;18.40;;
18653;SDS011;9456;47.824;16.228;2023-03-01T12:51:01;26.60;;;19.47;;
18653;SDS011;9456;47.824;16.228;2023-03-01T12:53:30;25.00;;;19.97;;
18653;SDS011;9456;47.824;16.228;2023-03-01T12:56:00;25.53;;;19.70;;
18653;SDS011;9456;47.824;16.228;2023-03-01T12:58:31;25.43;;;19.13;;
18653;SDS011;9456;47.824;16.228;2023-03-01T13:01:05;30.90;;;20.33;;
18653;SDS011;9456;47.824;16.228;2023-03-01T13:03:38;26.17;;;19.83;;
18653;SDS011;9456;47.824;16.228;2023-03-01T13:06:11;27.80;;;20.67;;
18653;SDS011;9456;47.824;16.228;2023-03-01T13:08:39;29.43;;;20.20;;
18653;SDS011;9456;47.824;16.228;2023-03-01T13:11:11;28.70;;;21.40;;
18653;SDS011;9456;47.824;16.228;2023-03-01T13:13:40;28.07;;;20.00;;
18653;SDS011;9456;47.824;16.228;2023-03-01T13:16:38;27.90;;;19.80;;
18653;SDS011;9456;47.824;16.228;2023-03-01T13:19:07;30.73;;;19.50;;
18653;SDS011;9456;47.824;16.228;2023-03-01T13:21:37;26.50;;;19.27;;
18653;SDS011;9456;47.824;16.228;2023-03-01T13:24:23;25.47;;;19.30;;
18653;SDS011;9456;47.824;16.228;2023-03-01T13:29:46;24.07;;;19.27;;
18653;SDS011;9456;47.824;16.228;2023-03-01T13:32:22;22.33;;;18.63;;
18653;SDS011;9456;47.824;16.228;2023-03-01T13:34:57;27.77;;;20.67;;
18653;SDS011;9456;47.824;16.228;2023-03-01T13:37:31;24.93;;;19.70;;
18653;SDS011;9456;47.824;16.228;2023-03-01T13:40:05;25.70;;;19.43;;
18653;SDS011;9456;47.824;16.228;2023-03-01T13:42:46;28.30;;;18.90;;
18653;SDS011;9456;47.824;16.228;2023-03-01T13:45:19;25.57;;;19.03;;
18653;SDS011;9456;47.824;16.228;2023-03-01T13:47:50;25.37;;;19.33;;
18653;SDS011;9456;47.824;16.228;2023-03-01T13:50:20;25.07;;;19.10;;
18653;SDS011;9456;47.824;16.228;2023-03-01T13:52:50;28.97;;;21.53;;
18653;SDS011;9456;47.824;16.228;2023-03-01T13:55:21;23.23;;;18.87;;
18653;SDS011;9456;47.824;16.228;2023-03-01T13:57:50;24.87;;;20.07;;
18653;SDS011;9456;47.824;16.228;2023-03-01T14:03:03;25.63;;;20.17;;
18653;SDS011;9456;47.824;16.228;2023-03-01T14:05:33;28.43;;;19.80;;
18653;SDS011;9456;47.824;16.228;2023-03-01T14:08:03;27.70;;;20.80;;
18653;SDS011;9456;47.824;16.228;2023-03-01T14:10:35;27.47;;;21.03;;
18653;SDS011;9456;47.824;16.228;2023-03-01T14:13:05;42.10;;;28.27;;
18653;SDS011;9456;47.824;16.228;2023-03-01T14:15:37;26.73;;;21.03;;
18653;SDS011;9456;47.824;16.228;2023-03-01T14:18:07;51.73;;;32.77;;
18653;SDS011;9456;47.824;16.228;2023-03-01T14:20:38;31.20;;;23.80;;
18653;SDS011;9456;47.824;16.228;2023-03-01T14:23:10;26.90;;;20.77;;
18653;SDS011;9456;47.824;16.228;2023-03-01T14:25:38;29.17;;;19.40;;
18653;SDS011;9456;47.824;16.228;2023-03-01T14:28:13;23.00;;;18.50;;
18653;SDS011;9456;47.824;16.228;2023-03-01T14:30:42;26.53;;;18.60;;
18653;SDS011;9456;47.824;16.228;2023-03-01T14:33:19;24.10;;;17.73;;
18653;SDS011;9456;47.824;16.228;2023-03-01T14:35:55;24.80;;;16.87;;
18653;SDS011;9456;47.824;16.228;2023-03-01T14:38:29;23.80;;;18.13;;
18653;SDS011;9456;47.824;16.228;2023-03-01T14:40:57;20.13;;;16.33;;
18653;SDS011;9456;47.824;16.228;2023-03-01T14:43:26;24.80;;;17.90;;
18653;SDS011;9456;47.824;16.228;2023-03-01T14:45:55;27.00;;;18.17;;
18653;SDS011;9456;47.824;16.228;2023-03-01T14:48:24;26.90;;;17.20;;
18653;SDS011;9456;47.824;16.228;2023-03-01T14:50:53;24.57;;;16.77;;
18653;SDS011;9456;47.824;16.228;2023-03-01T14:53:22;23.93;;;17.00;;
18653;SDS011;9456;47.824;16.228;2023-03-01T14:55:52;26.17;;;15.87;;
18653;SDS011;9456;47.824;16.228;2023-03-01T14:58:21;25.87;;;16.60;;
18653;SDS011;9456;47.824;16.228;2023-03-01T15:00:51;25.23;;;17.10;;
18653;SDS011;9456;47.824;16.228;2023-03-01T15:03:23;24.80;;;17.53;;
18653;SDS011;9456;47.824;16.228;2023-03-01T15:05:52;19.50;;;15.90;;
18653;SDS011;9456;47.824;16.228;2023-03-01T15:08:23;25.93;;;17.10;;
18653;SDS011;9456;47.824;16.228;2023-03-01T15:10:57;20.37;;;15.43;;
18653;SDS011;9456;47.824;16.228;2023-03-01T15:13:30;20.07;;;15.20;;